Time;durP1;ratioP1;P1;durP2;ratioP2;P2;SDS_P1;SDS_P2;PMS_P1;PMS_P2;Temp;Humidity;BMP_temperature;BMP_pressure;BME280_temperature;BME280_humidity;BME280_pressure;Samples;Min_cycle;Max_cycle;Signal;HPM_P1;HPM_P2
2022/06/23 00:00:31;;;;;;;0.00;0.00;;;14.40;99.90;;;;;;5001089;28;20037;-63
2022/06/23 00:02:57;;;;;;;;;;;14.30;99.90;;;;;;4999852;28;20096;-63
2022/06/23 00:05:27;;;;;;;0.00;0.00;;;14.40;99.90;;;;;;4998207;28;20012;-63
2022/06/23 00:07:59;;;;;;;0.00;0.00;;;14.50;99.90;;;;;;5001237;28;20050;-63
2022/06/23 00:10:37;;;;;;;0.00;0.00;;;14.50;99.90;;;;;;4998672;28;20050;-63
2022/06/23 00:13:16;;;;;;;0.00;0.00;;;14.40;99.90;;;;;;5000654;28;20057;-63
2022/06/23 00:15:44;;;;;;;0.00;0.00;;;14.40;99.90;;;;;;5001142;28;20067;-62
2022/06/23 00:18:22;;;;;;;0.00;0.00;;;14.40;99.90;;;;;;4998852;28;20446;-62
2022/06/23 00:20:52;;;;;;;0.00;0.00;;;14.40;99.90;;;;;;5000806;28;20053;-63
2022/06/23 00:23:34;;;;;;;0.00;0.00;;;14.50;99.90;;;;;;5000601;28;20728;-63
2022/06/23 00:26:04;;;;;;;0.00;0.00;;;14.40;99.90;;;;;;4999874;28;20049;-63
2022/06/23 00:29:02;;;;;;;0.00;0.00;;;14.40;99.90;;;;;;5000007;28;20140;-63
2022/06/23 00:31:42;;;;;;;0.00;0.00;;;14.30;99.90;;;;;;5000565;28;20480;-63
2022/06/23 00:34:20;;;;;;;0.00;0.00;;;14.30;99.90;;;;;;5000352;28;20696;-63
2022/06/23 00:37:06;;;;;;;0.00;0.00;;;14.30;99.90;;;;;;5015638;28;20045;-63
2022/06/23 00:39:40;;;;;;;0.00;0.00;;;14.20;99.90;;;;;;4998542;28;20054;-63
2022/06/23 00:42:23;;;;;;;0.00;0.00;;;14.10;99.90;;;;;;4998276;28;20046;-63
2022/06/23 00:45:01;;;;;;;0.00;0.00;;;14.10;99.90;;;;;;4994521;28;20038;-63
2022/06/23 00:47:39;;;;;;;0.00;0.00;;;14.10;99.90;;;;;;4987408;28;20052;-63
2022/06/23 00:50:11;;;;;;;0.00;0.00;;;14.00;99.90;;;;;;4995632;28;20061;-63
2022/06/23 00:52:45;;;;;;;0.00;0.00;;;14.00;99.90;;;;;;4979625;28;20089;-63
2022/06/23 00:55:29;;;;;;;0.00;0.00;;;13.80;99.90;;;;;;4980335;28;20129;-62
2022/06/23 00:57:59;;;;;;;0.00;0.00;;;13.90;99.90;;;;;;4979874;28;20038;-63
2022/06/23 01:00:34;;;;;;;0.00;0.00;;;13.90;99.90;;;;;;4980380;28;20046;-63
2022/06/23 01:03:37;;;;;;;0.00;0.00;;;13.90;99.90;;;;;;4980036;28;20038;-62
2022/06/23 01:06:29;;;;;;;0.00;0.00;;;13.80;99.90;;;;;;4979572;28;20662;-63
2022/06/23 01:09:02;;;;;;;0.00;0.00;;;13.80;99.90;;;;;;4994780;28;20061;-63
2022/06/23 01:11:45;;;;;;;0.00;0.00;;;13.80;99.90;;;;;;4979581;28;20058;-63
2022/06/23 01:14:14;;;;;;;0.00;0.00;;;13.80;99.90;;;;;;4994241;28;20203;-62
2022/06/23 01:17:14;;;;;;;0.00;0.00;;;13.90;99.90;;;;;;4980028;28;20065;-63
2022/06/23 01:19:58;;;;;;;0.00;0.00;;;13.90;99.90;;;;;;4974222;28;20525;-63
2022/06/23 01:22:24;;;;;;;0.00;0.00;;;13.90;99.90;;;;;;4979825;28;20061;-63
2022/06/23 01:25:23;;;;;;;0.00;0.00;;;14.00;99.90;;;;;;4978983;28;20054;-63
2022/06/23 01:27:59;;;;;;;0.00;0.00;;;13.90;99.90;;;;;;4979587;28;20046;-63
2022/06/23 01:30:37;;;;;;;0.00;0.00;;;13.90;99.90;;;;;;4979795;28;20459;-63
2022/06/23 01:33:14;;;;;;;0.00;0.00;;;13.80;99.90;;;;;;4979577;28;20058;-63
2022/06/23 01:35:53;;;;;;;0.00;0.00;;;13.80;99.90;;;;;;4979011;28;20382;-63
2022/06/23 01:38:37;;;;;;;0.00;0.00;;;13.70;99.90;;;;;;4979327;28;20065;-63
2022/06/23 01:41:45;;;;;;;0.00;0.00;;;13.70;99.90;;;;;;4977838;28;20476;-62
2022/06/23 01:44:13;;;;;;;0.00;0.00;;;13.70;99.90;;;;;;4968112;28;20586;-63
2022/06/23 01:46:42;;;;;;;0.00;0.00;;;13.70;99.90;;;;;;4987990;28;20050;-63
2022/06/23 01:49:13;;;;;;;0.00;0.00;;;13.70;99.90;;;;;;4979628;28;20118;-63
2022/06/23 01:51:46;;;;;;;0.00;0.00;;;13.60;99.90;;;;;;4978462;28;20050;-63
2022/06/23 01:54:20;;;;;;;0.00;0.00;;;13.60;99.90;;;;;;4979484;28;20117;-63
2022/06/23 01:57:04;;;;;;;0.00;0.00;;;13.50;99.90;;;;;;4978927;28;20046;-63
2022/06/23 01:59:39;;;;;;;0.00;0.00;;;13.60;99.90;;;;;;4978965;28;20510;-62
2022/06/23 02:02:07;;;;;;;0.00;0.00;;;13.50;99.90;;;;;;4979084;28;20093;-63
2022/06/23 02:05:11;;;;;;;0.00;0.00;;;13.50;99.90;;;;;;4978604;28;20485;-63
2022/06/23 02:07:39;;;;;;;0.00;0.00;;;13.50;99.90;;;;;;4978979;28;20070;-63
2022/06/23 02:10:28;;;;;;;0.00;0.00;;;13.50;99.90;;;;;;4977234;28;20074;-63
2022/06/23 02:13:40;;;;;;;0.08;0.00;;;13.50;99.90;;;;;;4979245;28;20453;-63
2022/06/23 02:16:16;;;;;;;0.00;0.00;;;13.60;99.90;;;;;;4994096;28;20101;-63
2022/06/23 02:18:54;;;;;;;0.00;0.00;;;13.50;99.90;;;;;;4978623;28;20058;-63
2022/06/23 02:21:39;;;;;;;0.00;0.00;;;13.60;99.90;;;;;;4978613;28;20532;-63
2022/06/23 02:24:10;;;;;;;0.00;0.00;;;13.50;99.90;;;;;;4977813;28;20413;-63
2022/06/23 02:27:16;;;;;;;0.00;0.00;;;13.60;99.90;;;;;;4977701;28;20050;-62
2022/06/23 02:29:48;;;;;;;0.00;0.00;;;13.60;99.90;;;;;;4979220;28;20109;-62
2022/06/23 02:32:29;;;;;;;0.00;0.00;;;13.60;99.90;;;;;;4979047;28;20046;-62
2022/06/23 02:35:12;;;;;;;0.00;0.00;;;13.50;99.90;;;;;;4978778;28;20100;-62
2022/06/23 02:37:53;;;;;;;0.00;0.00;;;13.40;99.90;;;;;;4978587;28;20076;-63
2022/06/23 02:40:37;;;;;;;0.00;0.00;;;13.40;99.90;;;;;;4977740;28;20060;-63
2022/06/23 02:43:25;;;;;;;0.00;0.00;;;13.30;99.90;;;;;;4978616;28;20077;-62
2022/06/23 02:46:16;;;;;;;0.00;0.00;;;13.30;99.90;;;;;;4989452;28;20061;-62
2022/06/23 02:49:04;;;;;;;0.00;0.00;;;13.30;99.90;;;;;;4978438;28;20050;-62
2022/06/23 02:51:36;;;;;;;0.00;0.00;;;13.20;99.90;;;;;;4978562;28;20732;-63
2022/06/23 02:54:27;;;;;;;0.00;0.00;;;13.20;99.90;;;;;;4977478;28;20054;-64
2022/06/23 02:57:22;;;;;;;0.00;0.00;;;13.20;99.90;;;;;;4977997;28;20038;-62
2022/06/23 02:59:56;;;;;;;0.00;0.00;;;13.20;99.90;;;;;;4978885;28;20433;-63
2022/06/23 03:02:42;;;;;;;0.00;0.00;;;13.20;99.90;;;;;;4978110;28;20042;-63
2022/06/23 03:05:28;;;;;;;0.00;0.00;;;13.10;99.90;;;;;;4978071;28;20069;-63
2022/06/23 03:08:03;;;;;;;0.00;0.00;;;13.10;99.90;;;;;;4978201;28;20122;-63
2022/06/23 03:10:47;;;;;;;0.00;0.00;;;13.10;99.90;;;;;;4977441;28;20073;-63
2022/06/23 03:13:44;;;;;;;0.00;0.00;;;13.20;99.90;;;;;;4978900;28;20109;-63
2022/06/23 03:16:22;;;;;;;0.00;0.00;;;13.20;99.90;;;;;;4978186;28;20129;-62
2022/06/23 03:19:09;;;;;;;0.00;0.00;;;13.20;99.90;;;;;;4977749;28;20133;-62
2022/06/23 03:21:47;;;;;;;0.00;0.00;;;13.20;99.90;;;;;;4978408;28;20050;-63
2022/06/23 03:24:34;;;;;;;0.00;0.00;;;13.30;99.90;;;;;;4977902;28;20493;-63
2022/06/23 03:27:05;;;;;;;0.00;0.00;;;13.30;99.90;;;;;;4977513;28;20042;-62
2022/06/23 03:29:33;;;;;;;0.00;0.00;;;13.30;99.90;;;;;;4977412;28;20069;-63
2022/06/23 03:32:11;;;;;;;0.00;0.00;;;13.30;99.90;;;;;;4977123;28;20109;-63
2022/06/23 03:34:44;;;;;;;0.00;0.00;;;13.30;99.90;;;;;;4977958;28;20126;-63
2022/06/23 03:37:41;;;;;;;0.00;0.00;;;13.30;99.90;;;;;;4977549;28;20670;-63
2022/06/23 03:43:33;;;;;;;0.00;0.00;;;13.30;99.90;;;;;;4981760;28;20454;-63
2022/06/23 03:46:31;;;;;;;0.00;0.00;;;13.30;99.90;;;;;;4992509;28;20117;-62
2022/06/23 03:49:07;;;;;;;0.00;0.00;;;13.30;99.90;;;;;;4980610;28;20049;-62
2022/06/23 03:51:40;;;;;;;0.00;0.00;;;13.30;99.90;;;;;;4981591;28;20077;-61
2022/06/23 03:54:16;;;;;;;0.00;0.00;;;13.30;99.90;;;;;;4981054;28;20099;-63
2022/06/23 03:57:07;;;;;;;0.00;0.00;;;13.40;99.90;;;;;;4981281;28;20054;-62
2022/06/23 03:59:59;;;;;;;0.00;0.00;;;13.40;99.90;;;;;;4980933;28;21025;-63
2022/06/23 04:02:31;;;;;;;0.00;0.00;;;13.50;99.90;;;;;;4981153;28;20046;-63
2022/06/23 04:05:08;;;;;;;0.00;0.00;;;13.50;99.90;;;;;;4980291;28;20078;-62
2022/06/23 04:07:47;;;;;;;0.00;0.00;;;13.50;99.90;;;;;;4981538;28;20104;-63
2022/06/23 04:10:20;;;;;;;0.00;0.00;;;13.70;99.90;;;;;;4979766;28;20063;-63
2022/06/23 04:12:51;;;;;;;0.00;0.00;;;13.80;99.90;;;;;;4996409;28;20063;-62
2022/06/23 04:15:33;;;;;;;0.00;0.00;;;14.30;99.90;;;;;;4981061;28;20035;-62
2022/06/23 04:18:04;;;;;;;0.00;0.00;;;14.60;99.90;;;;;;4980302;28;20054;-63
2022/06/23 04:20:44;;;;;;;0.00;0.00;;;14.70;99.90;;;;;;4980995;28;20046;-63
2022/06/23 04:23:32;;;;;;;0.00;0.00;;;14.60;99.90;;;;;;4980284;28;20046;-62
2022/06/23 04:26:30;;;;;;;0.00;0.00;;;14.40;99.90;;;;;;4980293;28;20042;-63
2022/06/23 04:29:05;;;;;;;0.00;0.00;;;14.30;99.90;;;;;;4980964;28;20054;-62
2022/06/23 04:31:34;;;;;;;0.00;0.00;;;14.30;99.90;;;;;;4980937;28;20042;-63
2022/06/23 04:34:01;;;;;;;0.00;0.00;;;14.30;99.90;;;;;;4979869;28;20049;-62
2022/06/23 04:36:31;;;;;;;0.00;0.00;;;14.20;99.90;;;;;;4980602;28;20073;-63
2022/06/23 04:39:18;;;;;;;0.00;0.00;;;14.20;99.90;;;;;;4980486;28;20066;-62
2022/06/23 04:42:07;;;;;;;0.00;0.00;;;14.10;99.90;;;;;;4980425;28;20327;-62
2022/06/23 04:44:35;;;;;;;0.00;0.00;;;14.10;99.90;;;;;;4982752;28;20034;-63
2022/06/23 04:47:12;;;;;;;0.00;0.00;;;14.10;99.90;;;;;;4989213;28;20108;-62
2022/06/23 04:49:53;;;;;;;0.00;0.00;;;14.10;99.90;;;;;;4980580;28;20039;-63
2022/06/23 04:52:40;;;;;;;0.00;0.00;;;14.30;99.90;;;;;;4979647;28;20157;-63
2022/06/23 04:55:19;;;;;;;0.00;0.00;;;14.40;99.90;;;;;;4979909;28;20049;-63
2022/06/23 04:58:06;;;;;;;0.10;0.10;;;15.00;99.90;;;;;;4995663;28;20050;-63
2022/06/23 05:00:40;;;;;;;0.00;0.00;;;15.60;99.90;;;;;;4980358;28;20050;-63
2022/06/23 05:03:34;;;;;;;0.08;0.08;;;16.10;99.90;;;;;;4994843;28;20294;-63
2022/06/23 05:06:00;;;;;;;0.00;0.00;;;16.50;99.90;;;;;;4978844;28;20046;-63
2022/06/23 05:08:30;;;;;;;0.00;0.00;;;16.60;99.90;;;;;;4979136;28;20104;-63
2022/06/23 05:11:11;;;;;;;0.00;0.00;;;17.00;99.90;;;;;;4979181;28;20429;-63
2022/06/23 05:13:46;;;;;;;0.00;0.00;;;17.40;99.90;;;;;;4979133;28;20054;-62
2022/06/23 05:16:31;;;;;;;0.00;0.00;;;17.70;99.90;;;;;;4980457;28;20042;-63
2022/06/23 05:19:00;;;;;;;;;;;18.00;99.90;;;;;;4980263;28;20096;-63
2022/06/23 05:21:57;;;;;;;0.08;0.08;;;18.10;99.90;;;;;;4979779;28;20367;-62
2022/06/23 05:24:35;;;;;;;0.00;0.00;;;18.30;99.90;;;;;;4973943;28;20089;-63
2022/06/23 05:27:05;;;;;;;0.00;0.00;;;18.50;99.90;;;;;;4978228;28;20063;-63
2022/06/23 05:29:31;;;;;;;1.42;0.08;;;18.50;99.90;;;;;;4979660;28;20050;-63
2022/06/23 05:32:02;;;;;;;0.00;0.00;;;18.70;99.90;;;;;;4993829;28;20054;-62
2022/06/23 05:34:31;;;;;;;0.10;0.10;;;18.70;99.90;;;;;;4979484;28;20453;-63
2022/06/23 05:37:29;;;;;;;0.00;0.00;;;18.80;99.90;;;;;;4979563;28;20081;-63
2022/06/23 05:40:09;;;;;;;0.00;0.00;;;19.10;99.90;;;;;;4993982;28;20050;-63
2022/06/23 05:42:40;;;;;;;0.00;0.00;;;19.20;99.90;;;;;;4979664;28;20129;-63
2022/06/23 05:45:13;;;;;;;0.00;0.00;;;19.30;99.90;;;;;;4984220;28;20046;-63
2022/06/23 05:47:39;;;;;;;0.00;0.00;;;19.40;99.90;;;;;;4984314;28;20050;-63
2022/06/23 05:50:16;;;;;;;0.00;0.00;;;19.40;99.90;;;;;;4979273;28;20250;-63
2022/06/23 05:52:51;;;;;;;0.00;0.00;;;19.70;99.90;;;;;;4980118;28;20049;-62
2022/06/23 05:55:25;;;;;;;;;;;20.00;99.90;;;;;;4978822;28;20048;-62
2022/06/23 05:58:14;;;;;;;0.00;0.00;;;20.20;99.90;;;;;;4978710;28;19921;-63
2022/06/23 06:01:02;;;;;;;0.00;0.00;;;20.30;99.90;;;;;;4971492;28;20054;-63
2022/06/23 06:03:40;;;;;;;0.00;0.00;;;20.20;99.90;;;;;;4993574;28;20049;-63
2022/06/23 06:06:07;;;;;;;0.00;0.00;;;20.20;99.90;;;;;;4978738;28;20386;-62
2022/06/23 06:11:26;;;;;;;0.00;0.00;;;20.40;99.90;;;;;;4978453;28;20054;-63
2022/06/23 06:13:52;;;;;;;0.10;0.00;;;20.50;99.90;;;;;;4978075;28;20050;-63
2022/06/23 06:16:18;;;;;;;0.00;0.00;;;20.70;99.90;;;;;;4993400;28;20054;-63
2022/06/23 06:18:46;;;;;;;0.00;0.00;;;20.90;99.90;;;;;;4979329;28;20493;-62
2022/06/23 06:21:16;;;;;;;0.00;0.00;;;21.00;99.90;;;;;;4979106;28;20050;-63
2022/06/23 06:24:09;;;;;;;0.00;0.00;;;21.00;99.90;;;;;;4978503;28;20042;-62
2022/06/23 06:26:41;;;;;;;0.00;0.00;;;21.30;99.90;;;;;;4977743;28;20050;-63
2022/06/23 06:29:23;;;;;;;0.00;0.00;;;21.60;99.90;;;;;;4978399;28;20042;-63
2022/06/23 06:32:12;;;;;;;0.00;0.00;;;21.50;99.90;;;;;;4977545;28;20101;-62
2022/06/23 06:34:42;;;;;;;0.00;0.00;;;21.70;99.90;;;;;;4978535;28;20044;-63
2022/06/23 06:37:11;;;;;;;0.00;0.00;;;21.80;99.90;;;;;;4978509;28;20053;-62
2022/06/23 06:39:39;;;;;;;0.00;0.00;;;22.00;99.90;;;;;;4977137;28;20057;-63
2022/06/23 06:42:12;;;;;;;0.00;0.00;;;22.00;99.90;;;;;;4978645;28;20046;-62
2022/06/23 06:44:44;;;;;;;0.00;0.00;;;22.30;99.90;;;;;;4981065;28;20670;-63
2022/06/23 06:47:17;;;;;;;0.00;0.00;;;22.30;99.90;;;;;;4986025;28;20042;-63
2022/06/23 06:49:44;;;;;;;0.00;0.00;;;22.40;99.90;;;;;;4978782;28;20503;-63
2022/06/23 06:52:11;;;;;;;0.00;0.00;;;22.30;99.90;;;;;;4978333;28;20089;-63
2022/06/23 06:54:45;;;;;;;0.00;0.00;;;22.30;99.90;;;;;;4977057;28;20501;-60
2022/06/23 06:57:39;;;;;;;0.00;0.00;;;22.50;99.90;;;;;;4978962;28;20121;-60
2022/06/23 07:00:38;;;;;;;0.00;0.00;;;22.70;99.90;;;;;;4976911;28;20045;-61
2022/06/23 07:03:06;;;;;;;0.00;0.00;;;22.80;99.90;;;;;;4977857;28;20046;-61
2022/06/23 07:05:48;;;;;;;0.00;0.00;;;23.00;99.90;;;;;;4977376;28;20047;-61
2022/06/23 07:08:47;;;;;;;0.00;0.00;;;23.00;99.90;;;;;;4978409;28;20117;-60
2022/06/23 07:11:38;;;;;;;0.00;0.00;;;22.90;99.90;;;;;;4977482;28;20125;-61
2022/06/23 07:14:31;;;;;;;0.08;0.08;;;23.10;99.90;;;;;;4977265;28;20197;-61
2022/06/23 07:17:12;;;;;;;0.00;0.00;;;22.70;99.90;;;;;;4981648;28;20555;-61
2022/06/23 07:20:04;;;;;;;0.00;0.00;;;23.10;99.90;;;;;;4993348;28;20244;-62
2022/06/23 07:22:58;;;;;;;0.00;0.00;;;23.30;99.90;;;;;;4991019;28;20039;-62
2022/06/23 07:25:31;;;;;;;0.00;0.00;;;23.50;99.90;;;;;;4975196;28;20066;-61
2022/06/23 07:28:06;;;;;;;0.00;0.00;;;23.80;99.90;;;;;;4981401;28;20042;-61
2022/06/23 07:30:40;;;;;;;0.00;0.00;;;23.80;99.90;;;;;;4981746;28;20448;-61
2022/06/23 07:33:18;;;;;;;0.00;0.00;;;23.60;99.90;;;;;;4981471;28;20584;-61
2022/06/23 07:35:53;;;;;;;0.00;0.00;;;23.90;99.90;;;;;;4981633;28;20050;-62
2022/06/23 07:38:39;;;;;;;0.00;0.00;;;24.20;99.90;;;;;;4981464;28;20043;-61
2022/06/23 07:41:13;;;;;;;0.15;0.00;;;23.70;99.90;;;;;;4995046;28;20050;-61
2022/06/23 07:44:08;;;;;;;0.00;0.00;;;24.00;99.90;;;;;;4984118;28;20053;-62
2022/06/23 07:46:38;;;;;;;0.00;0.00;;;24.20;99.90;;;;;;4989978;28;20390;-61
2022/06/23 07:49:05;;;;;;;0.00;0.00;;;24.30;99.90;;;;;;4990088;28;20421;-61
2022/06/23 07:51:31;;;;;;;0.00;0.00;;;24.40;99.90;;;;;;4990646;28;20108;-61
2022/06/23 07:53:58;;;;;;;0.00;0.00;;;24.10;99.90;;;;;;4989245;28;20042;-61
2022/06/23 07:56:29;;;;;;;0.00;0.00;;;24.10;99.90;;;;;;4993027;28;20120;-62
2022/06/23 07:59:10;;;;;;;0.00;0.00;;;24.40;99.90;;;;;;4990384;28;20047;-61
2022/06/23 08:01:47;;;;;;;0.00;0.00;;;24.20;99.90;;;;;;5000139;28;20042;-62
2022/06/23 08:04:12;;;;;;;0.00;0.00;;;24.30;99.90;;;;;;5001100;28;20117;-62
2022/06/23 08:06:38;;;;;;;0.00;0.00;;;24.30;99.90;;;;;;5000684;28;20050;-62
2022/06/23 08:09:22;;;;;;;0.00;0.00;;;24.50;99.90;;;;;;4998877;28;20061;-61
2022/06/23 08:14:37;;;;;;;0.00;0.00;;;24.30;99.90;;;;;;5000127;28;20050;-62
2022/06/23 08:17:08;;;;;;;0.10;0.10;;;24.40;99.90;;;;;;5000032;28;20049;-62
2022/06/23 08:19:56;;;;;;;0.00;0.00;;;24.40;99.90;;;;;;4999341;28;20073;-61
2022/06/23 08:22:25;;;;;;;0.00;0.00;;;24.70;99.90;;;;;;5000476;28;20440;-61
2022/06/23 08:24:55;;;;;;;0.00;0.00;;;24.80;99.90;;;;;;5000037;28;20509;-61
2022/06/23 08:27:24;;;;;;;0.00;0.00;;;25.10;99.90;;;;;;4998473;28;20049;-61
2022/06/23 08:29:55;;;;;;;0.00;0.00;;;25.30;99.90;;;;;;5000363;28;20548;-61
2022/06/23 08:32:22;;;;;;;0.20;0.10;;;25.30;99.90;;;;;;5000147;28;20045;-62
2022/06/23 08:35:28;;;;;;;0.10;0.10;;;25.20;99.90;;;;;;4999476;28;20052;-61
2022/06/23 08:38:10;;;;;;;0.00;0.00;;;25.30;99.90;;;;;;4990796;28;20060;-61
2022/06/23 08:41:03;;;;;;;0.03;0.00;;;25.50;99.90;;;;;;4999075;28;20096;-63
2022/06/23 08:43:39;;;;;;;0.00;0.00;;;25.50;99.90;;;;;;4999306;28;20097;-61
2022/06/23 08:46:29;;;;;;;0.00;0.00;;;25.80;99.90;;;;;;4991596;28;20041;-62
2022/06/23 08:49:24;;;;;;;0.00;0.00;;;25.90;99.90;;;;;;4980523;28;20046;-62
2022/06/23 08:51:57;;;;;;;0.00;0.00;;;26.10;99.90;;;;;;4980772;28;20038;-61
2022/06/23 08:54:40;;;;;;;0.00;0.00;;;26.30;99.90;;;;;;4994463;28;20119;-62
2022/06/23 08:57:23;;;;;;;0.00;0.00;;;26.40;99.90;;;;;;4980485;28;20081;-62
2022/06/23 09:00:10;;;;;;;0.00;0.00;;;26.50;99.90;;;;;;4980421;28;20445;-62
2022/06/23 09:03:08;;;;;;;0.00;0.00;;;26.80;99.90;;;;;;4979870;28;20046;-62
2022/06/23 09:05:37;;;;;;;0.00;0.00;;;26.80;99.90;;;;;;4979831;28;20049;-62
2022/06/23 09:08:19;;;;;;;0.00;0.00;;;26.90;99.90;;;;;;4994402;28;20076;-63
2022/06/23 09:11:13;;;;;;;0.05;0.00;;;27.20;99.90;;;;;;4979591;28;20145;-46
2022/06/23 09:14:03;;;;;;;0.00;0.00;;;27.10;99.90;;;;;;4994917;28;20050;-62
2022/06/23 09:17:12;;;;;;;0.00;0.00;;;27.30;99.90;;;;;;4980167;28;20561;-62
2022/06/23 09:19:53;;;;;;;0.00;0.00;;;27.40;99.90;;;;;;4979738;28;20038;-63
2022/06/23 09:22:31;;;;;;;0.00;0.00;;;27.10;99.90;;;;;;4979277;28;20050;-60
2022/06/23 09:24:59;;;;;;;0.00;0.00;;;27.40;99.90;;;;;;4978241;28;20417;-60
2022/06/23 09:27:42;;;;;;;0.00;0.00;;;27.20;99.90;;;;;;4978463;28;20081;-61
2022/06/23 09:30:36;;;;;;;0.00;0.00;;;27.50;99.90;;;;;;4979654;28;20054;-60
2022/06/23 09:33:31;;;;;;;0.00;0.00;;;27.50;99.90;;;;;;4979662;28;20078;-61
2022/06/23 09:36:07;;;;;;;0.00;0.00;;;27.70;99.90;;;;;;4978901;28;20042;-60
2022/06/23 09:38:39;;;;;;;0.00;0.00;;;27.90;99.90;;;;;;4978800;28;20132;-60
2022/06/23 09:41:26;;;;;;;0.00;0.00;;;28.00;99.90;;;;;;4978764;28;20046;-61
2022/06/23 09:43:59;;;;;;;0.00;0.00;;;28.20;99.90;;;;;;4979651;28;20058;-61
2022/06/23 09:46:47;;;;;;;0.00;0.00;;;28.40;99.90;;;;;;4983666;28;20543;-60
2022/06/23 09:49:49;;;;;;;0.00;0.00;;;28.40;99.90;;;;;;4978388;28;20113;-61
2022/06/23 09:52:34;;;;;;;0.00;0.00;;;28.40;99.90;;;;;;4954043;28;20165;-59
2022/06/23 09:55:28;;;;;;;0.00;0.00;;;28.10;99.90;;;;;;4978191;28;20050;-60
2022/06/23 09:58:24;;;;;;;0.00;0.00;;;28.50;99.90;;;;;;4979215;28;20466;-60
2022/06/23 10:01:12;;;;;;;0.00;0.00;;;28.80;99.90;;;;;;4978390;28;20099;-56
2022/06/23 10:03:49;;;;;;;0.00;0.00;;;29.10;99.90;;;;;;4977890;28;20109;-61
2022/06/23 10:06:40;;;;;;;0.00;0.00;;;29.30;99.90;;;;;;4978588;28;20042;-61
2022/06/23 10:09:32;;;;;;;0.00;0.00;;;29.30;99.90;;;;;;4976639;28;20686;-60
2022/06/23 10:12:09;;;;;;;0.00;0.00;;;29.30;99.90;;;;;;4979034;28;20047;-60
2022/06/23 10:14:48;;;;;;;0.00;0.00;;;29.10;99.90;;;;;;4978240;28;20821;-61
2022/06/23 10:17:45;;;;;;;0.00;0.00;;;29.40;99.90;;;;;;4978897;28;20042;-61
2022/06/23 10:20:30;;;;;;;0.00;0.00;;;29.40;99.90;;;;;;4925193;28;20081;-60
2022/06/23 10:23:16;;;;;;;0.00;0.00;;;29.00;99.90;;;;;;4986536;28;20390;-59
2022/06/23 10:26:16;;;;;;;0.00;0.00;;;29.20;99.90;;;;;;4978602;28;20050;-59
2022/06/23 10:29:12;;;;;;;0.00;0.00;;;29.40;99.90;;;;;;4955094;28;20486;-58
2022/06/23 10:32:09;;;;;;;0.00;0.00;;;29.50;99.90;;;;;;4983984;28;20045;-59
2022/06/23 10:35:03;;;;;;;0.00;0.00;;;29.90;99.90;;;;;;4976746;28;21253;-60
2022/06/23 10:37:56;;;;;;;0.00;0.00;;;30.00;99.90;;;;;;4986110;28;20486;-60
2022/06/23 10:40:51;;;;;;;0.05;0.05;;;30.30;99.90;;;;;;4976905;28;20054;-59
2022/06/23 10:43:43;;;;;;;0.00;0.00;;;29.80;99.90;;;;;;4977629;28;20081;-58
2022/06/23 10:46:13;;;;;;;0.35;0.10;;;29.80;99.90;;;;;;4985457;28;20042;-58
2022/06/23 10:49:16;;;;;;;0.00;0.00;;;30.10;99.90;;;;;;4995202;28;20048;-59
2022/06/23 10:52:00;;;;;;;0.00;0.00;;;30.10;99.90;;;;;;4978543;28;20049;-57
2022/06/23 10:54:37;;;;;;;;;;;30.20;99.90;;;;;;4977419;28;20046;-60
2022/06/23 10:57:27;;;;;;;0.00;0.00;;;30.10;99.90;;;;;;4977825;28;19930;-60
2022/06/23 11:00:05;;;;;;;0.00;0.00;;;30.10;99.90;;;;;;4977008;28;20054;-59
2022/06/23 11:02:49;;;;;;;0.00;0.00;;;29.90;99.90;;;;;;4978212;28;20042;-60
2022/06/23 11:05:31;;;;;;;0.22;0.22;;;30.30;99.90;;;;;;4977703;28;20409;-61
2022/06/23 11:08:25;;;;;;;0.08;0.08;;;30.30;99.90;;;;;;4977785;28;20046;-60
2022/06/23 11:11:00;;;;;;;0.05;0.05;;;30.50;99.90;;;;;;4976794;28;20468;-62
2022/06/23 11:13:51;;;;;;;0.00;0.00;;;30.60;99.90;;;;;;4978142;28;20129;-60
2022/06/23 11:16:50;;;;;;;0.00;0.00;;;30.80;99.90;;;;;;4977567;28;20116;-59
2022/06/23 11:19:42;;;;;;;0.00;0.00;;;30.80;99.90;;;;;;4976799;28;20469;-59
2022/06/23 11:22:30;;;;;;;0.00;0.00;;;30.90;99.90;;;;;;4977650;28;20078;-56
2022/06/23 11:25:11;;;;;;;0.00;0.00;;;31.00;99.90;;;;;;4977611;28;20050;-56
2022/06/23 11:27:46;;;;;;;0.00;0.00;;;31.00;99.90;;;;;;4997524;28;20049;-60
2022/06/23 11:30:28;;;;;;;0.00;0.00;;;31.20;99.90;;;;;;4996783;28;20049;-61
2022/06/23 11:32:59;;;;;;;0.30;0.30;;;30.60;99.90;;;;;;4997076;28;20042;-59
2022/06/23 11:36:02;;;;;;;0.03;0.03;;;30.80;99.90;;;;;;4996724;28;20037;-61
2022/06/23 11:38:55;;;;;;;0.10;0.10;;;31.00;99.90;;;;;;4986050;28;20572;-59
2022/06/23 11:41:26;;;;;;;0.00;0.00;;;31.10;99.90;;;;;;4994367;28;20057;-60
2022/06/23 11:44:21;;;;;;;0.00;0.00;;;31.20;99.90;;;;;;4996660;28;20066;-59
2022/06/23 11:47:10;;;;;;;0.00;0.00;;;31.40;99.90;;;;;;4986648;28;20060;-59
2022/06/23 11:49:47;;;;;;;0.00;0.00;;;31.40;99.90;;;;;;4977019;28;20140;-61
2022/06/23 11:52:33;;;;;;;0.00;0.00;;;31.60;99.90;;;;;;4978237;28;20121;-60
2022/06/23 11:55:17;;;;;;;0.15;0.05;;;31.70;99.90;;;;;;4965155;28;20050;-60
2022/06/23 11:57:43;;;;;;;0.00;0.00;;;31.70;99.90;;;;;;4993237;28;20057;-60
2022/06/23 12:00:15;;;;;;;0.10;0.10;;;31.40;99.90;;;;;;4976637;28;20050;-60
2022/06/23 12:02:57;;;;;;;0.08;0.03;;;30.70;99.90;;;;;;4994621;28;20047;-61
2022/06/23 12:05:44;;;;;;;0.10;0.10;;;30.60;99.90;;;;;;4981192;28;20050;-61
2022/06/23 12:08:40;;;;;;;0.10;0.10;;;30.60;99.90;;;;;;4981063;28;20054;-60
2022/06/23 12:11:06;;;;;;;0.17;0.17;;;30.50;99.90;;;;;;4980969;28;20116;-61
2022/06/23 12:13:34;;;;;;;0.17;0.10;;;30.60;99.90;;;;;;4979453;28;20050;-61
2022/06/23 12:16:00;;;;;;;0.10;0.10;;;30.80;99.90;;;;;;4981064;28;20065;-61
2022/06/23 12:18:59;;;;;;;0.10;0.10;;;31.30;99.90;;;;;;4978759;28;20046;-61
2022/06/23 12:21:54;;;;;;;0.10;0.10;;;31.60;99.90;;;;;;4975550;28;20137;-61
2022/06/23 12:24:32;;;;;;;0.25;0.20;;;31.50;99.50;;;;;;4980257;28;20492;-60
2022/06/23 12:27:09;;;;;;;0.30;0.30;;;30.90;98.70;;;;;;4979304;28;20084;-61
2022/06/23 12:29:54;;;;;;;0.00;0.00;;;31.00;99.40;;;;;;4995853;28;21117;-61
2022/06/23 12:32:39;;;;;;;0.00;0.00;;;31.20;99.80;;;;;;4979646;28;20516;-60
2022/06/23 12:35:35;;;;;;;0.03;0.03;;;31.60;99.90;;;;;;4980668;28;20115;-61
2022/06/23 12:38:34;;;;;;;0.13;0.10;;;31.10;99.60;;;;;;4980938;28;20100;-61
2022/06/23 12:41:22;;;;;;;0.10;0.10;;;31.10;99.10;;;;;;4979446;28;20042;-61
2022/06/23 12:43:59;;;;;;;0.00;0.00;;;31.40;99.00;;;;;;4980786;28;20054;-61
2022/06/23 12:46:50;;;;;;;0.10;0.10;;;31.40;99.70;;;;;;4988338;28;20045;-61
2022/06/23 12:49:26;;;;;;;0.10;0.10;;;31.50;99.40;;;;;;5000099;28;20052;-60
2022/06/23 12:51:51;;;;;;;0.00;0.00;;;31.70;99.40;;;;;;5000016;28;20038;-61
2022/06/23 12:54:43;;;;;;;0.00;0.00;;;31.90;99.60;;;;;;4998908;28;20056;-60
2022/06/23 12:57:12;;;;;;;0.00;0.00;;;32.30;99.90;;;;;;4998912;28;20073;-59
2022/06/23 12:59:56;;;;;;;0.00;0.00;;;31.80;99.20;;;;;;4999595;28;20527;-61
2022/06/23 13:02:30;;;;;;;0.08;0.08;;;32.10;99.60;;;;;;4998623;28;20054;-61
2022/06/23 13:05:04;;;;;;;0.10;0.10;;;32.30;99.30;;;;;;4999536;28;20038;-60
2022/06/23 13:07:48;;;;;;;0.00;0.00;;;31.30;98.40;;;;;;4999356;28;20132;-61
2022/06/23 13:10:29;;;;;;;0.13;0.10;;;31.50;98.60;;;;;;4989559;28;20136;-60
2022/06/23 13:12:57;;;;;;;0.25;0.17;;;31.30;98.40;;;;;;4985547;28;20042;-61
2022/06/23 13:15:42;;;;;;;0.00;0.00;;;31.20;99.20;;;;;;4985096;28;20058;-60
2022/06/23 13:18:18;;;;;;;0.10;0.10;;;31.40;99.00;;;;;;4986152;28;20643;-60
2022/06/23 13:20:54;;;;;;;0.00;0.00;;;31.90;99.50;;;;;;4985314;28;20050;-60
2022/06/23 13:23:49;;;;;;;0.00;0.00;;;32.10;98.80;;;;;;4985120;28;20042;-60
2022/06/23 13:26:21;;;;;;;0.00;0.00;;;32.30;99.40;;;;;;4984058;28;20491;-61
2022/06/23 13:28:53;;;;;;;2.42;0.52;;;32.60;99.20;;;;;;4986071;28;20053;-61
2022/06/23 13:31:25;;;;;;;0.03;0.03;;;32.30;99.20;;;;;;4984760;28;20064;-61
2022/06/23 13:34:02;;;;;;;0.10;0.10;;;32.50;98.50;;;;;;4985357;28;20060;-60
2022/06/23 13:36:39;;;;;;;0.00;0.00;;;32.30;98.80;;;;;;4991312;28;20048;-61
2022/06/23 13:39:40;;;;;;;0.10;0.10;;;32.30;98.90;;;;;;4984265;28;20050;-61
2022/06/23 13:42:17;;;;;;;1.23;0.50;;;32.40;99.10;;;;;;4984688;28;20042;-61
2022/06/23 13:45:05;;;;;;;0.10;0.10;;;32.40;98.70;;;;;;4986447;28;20060;-60
2022/06/23 13:47:39;;;;;;;0.10;0.10;;;32.40;98.50;;;;;;4984789;28;20140;-62
2022/06/23 13:50:23;;;;;;;0.00;0.00;;;32.40;99.10;;;;;;4985730;28;20050;-61
2022/06/23 13:53:01;;;;;;;0.00;0.00;;;32.60;99.20;;;;;;4984556;28;20050;-61
2022/06/23 13:55:52;;;;;;;0.00;0.00;;;32.80;99.30;;;;;;4991199;28;20335;-61
2022/06/23 13:58:37;;;;;;;0.00;0.00;;;33.00;99.20;;;;;;4984088;28;20132;-61
2022/06/23 14:01:10;;;;;;;0.00;0.00;;;32.90;98.50;;;;;;4985365;28;20039;-61
2022/06/23 14:03:53;;;;;;;0.10;0.10;;;32.30;98.40;;;;;;4984181;28;20050;-61
2022/06/23 14:06:30;;;;;;;0.00;0.00;;;31.90;98.00;;;;;;4985035;28;20397;-61